Rose Haven, Maryland
Current Conditions -  °F | °C
As of 6:54 PM on Wednesday 22 Oct 2014 (Local Time) from KNAK Reporting Station
Light Rain Light Rain  
Wind Chill: 55°   Ceiling: 4400
Heat Index: 55°   Visibility: 10mi
Dew Point: 49°   Wind: 18mph
Humidity: 80%   Direction: 330°NNW
Pressure: 29.9"   Gusts: 23mph
Location:  38.7189°N, 76.5397°W
Report Text: KNAK 222254Z AUTO 33016G20KT 10SM -RA BKN044 OVC060 13/09 A2990 RMK AO2 SLP128 P0001 T01280094
Loading
Personal Weather Stations






























Interactive Weather Map
Tropical Storm Tracking
New forecast layout! Learn more

10-Day Weather Forecast

Advertisements
Track Severe Weather on mobile